sensor_id;sensor_type;location;lat;lon;timestamp;P1;durP1;ratioP1;P2;durP2;ratioP2
66143;SDS011;52947;50.842;6.084;2024-03-06T00:01:46;13.82;;;10.43;;
66143;SDS011;52947;50.842;6.084;2024-03-06T00:04:14;18.27;;;10.00;;
66143;SDS011;52947;50.842;6.084;2024-03-06T00:06:46;24.38;;;11.43;;
66143;SDS011;52947;50.842;6.084;2024-03-06T00:09:14;10.13;;;8.57;;
66143;SDS011;52947;50.842;6.084;2024-03-06T00:11:42;13.38;;;8.15;;
66143;SDS011;52947;50.842;6.084;2024-03-06T00:14:10;8.52;;;7.55;;
66143;SDS011;52947;50.842;6.084;2024-03-06T00:16:40;10.50;;;7.93;;
66143;SDS011;52947;50.842;6.084;2024-03-06T00:19:08;13.52;;;7.88;;
66143;SDS011;52947;50.842;6.084;2024-03-06T00:21:36;15.13;;;7.75;;
66143;SDS011;52947;50.842;6.084;2024-03-06T00:24:05;12.60;;;7.80;;
66143;SDS011;52947;50.842;6.084;2024-03-06T00:26:34;11.10;;;7.53;;
66143;SDS011;52947;50.842;6.084;2024-03-06T00:29:02;7.72;;;7.03;;
66143;SDS011;52947;50.842;6.084;2024-03-06T00:31:30;9.80;;;6.90;;
66143;SDS011;52947;50.842;6.084;2024-03-06T00:33:58;8.10;;;7.00;;
66143;SDS011;52947;50.842;6.084;2024-03-06T00:36:26;15.00;;;7.13;;
66143;SDS011;52947;50.842;6.084;2024-03-06T00:38:55;10.43;;;5.47;;
66143;SDS011;52947;50.842;6.084;2024-03-06T00:41:24;7.90;;;5.80;;
66143;SDS011;52947;50.842;6.084;2024-03-06T00:43:52;9.07;;;6.43;;
66143;SDS011;52947;50.842;6.084;2024-03-06T00:46:20;7.28;;;6.47;;
66143;SDS011;52947;50.842;6.084;2024-03-06T00:48:48;6.90;;;6.13;;
66143;SDS011;52947;50.842;6.084;2024-03-06T00:51:16;11.10;;;5.75;;
66143;SDS011;52947;50.842;6.084;2024-03-06T00:53:55;9.45;;;5.38;;
66143;SDS011;52947;50.842;6.084;2024-03-06T00:56:24;10.48;;;6.32;;
66143;SDS011;52947;50.842;6.084;2024-03-06T00:58:52;10.32;;;6.10;;
66143;SDS011;52947;50.842;6.084;2024-03-06T01:01:20;11.63;;;6.15;;
66143;SDS011;52947;50.842;6.084;2024-03-06T01:03:48;6.43;;;5.93;;
66143;SDS011;52947;50.842;6.084;2024-03-06T01:06:17;7.18;;;6.40;;
66143;SDS011;52947;50.842;6.084;2024-03-06T01:08:45;7.65;;;6.28;;
66143;SDS011;52947;50.842;6.084;2024-03-06T01:11:13;15.77;;;5.82;;
66143;SDS011;52947;50.842;6.084;2024-03-06T01:13:42;6.78;;;6.07;;
66143;SDS011;52947;50.842;6.084;2024-03-06T01:16:10;11.10;;;6.88;;
66143;SDS011;52947;50.842;6.084;2024-03-06T01:18:39;9.57;;;7.40;;
66143;SDS011;52947;50.842;6.084;2024-03-06T01:21:07;19.50;;;6.28;;
66143;SDS011;52947;50.842;6.084;2024-03-06T01:23:35;8.00;;;6.65;;
66143;SDS011;52947;50.842;6.084;2024-03-06T01:26:03;8.23;;;6.32;;
66143;SDS011;52947;50.842;6.084;2024-03-06T01:28:31;11.27;;;6.85;;
66143;SDS011;52947;50.842;6.084;2024-03-06T01:31:01;13.40;;;6.35;;
66143;SDS011;52947;50.842;6.084;2024-03-06T01:33:28;9.50;;;6.32;;
66143;SDS011;52947;50.842;6.084;2024-03-06T01:35:56;7.50;;;6.75;;
66143;SDS011;52947;50.842;6.084;2024-03-06T01:38:24;7.55;;;6.93;;
66143;SDS011;52947;50.842;6.084;2024-03-06T01:40:53;11.82;;;5.88;;
66143;SDS011;52947;50.842;6.084;2024-03-06T01:43:22;8.23;;;5.57;;
66143;SDS011;52947;50.842;6.084;2024-03-06T01:45:52;13.07;;;6.30;;
66143;SDS011;52947;50.842;6.084;2024-03-06T01:48:22;9.63;;;6.85;;
66143;SDS011;52947;50.842;6.084;2024-03-06T01:50:56;7.70;;;6.75;;
66143;SDS011;52947;50.842;6.084;2024-03-06T01:53:26;7.75;;;6.00;;
66143;SDS011;52947;50.842;6.084;2024-03-06T01:55:55;12.77;;;6.47;;
66143;SDS011;52947;50.842;6.084;2024-03-06T01:58:24;12.50;;;7.43;;
66143;SDS011;52947;50.842;6.084;2024-03-06T02:00:52;11.20;;;7.15;;
66143;SDS011;52947;50.842;6.084;2024-03-06T02:03:23;7.50;;;6.20;;
66143;SDS011;52947;50.842;6.084;2024-03-06T02:05:52;7.10;;;6.22;;
66143;SDS011;52947;50.842;6.084;2024-03-06T02:08:21;9.57;;;6.63;;
66143;SDS011;52947;50.842;6.084;2024-03-06T02:10:49;8.18;;;7.05;;
66143;SDS011;52947;50.842;6.084;2024-03-06T02:13:17;8.00;;;6.70;;
66143;SDS011;52947;50.842;6.084;2024-03-06T02:15:45;9.73;;;8.50;;
66143;SDS011;52947;50.842;6.084;2024-03-06T02:18:13;18.17;;;6.90;;
66143;SDS011;52947;50.842;6.084;2024-03-06T02:20:43;9.50;;;7.13;;
66143;SDS011;52947;50.842;6.084;2024-03-06T02:23:12;8.88;;;7.50;;
66143;SDS011;52947;50.842;6.084;2024-03-06T02:25:41;9.45;;;7.60;;
66143;SDS011;52947;50.842;6.084;2024-03-06T02:28:09;9.65;;;6.80;;
66143;SDS011;52947;50.842;6.084;2024-03-06T02:30:37;9.55;;;7.40;;
66143;SDS011;52947;50.842;6.084;2024-03-06T02:33:05;7.60;;;6.93;;
66143;SDS011;52947;50.842;6.084;2024-03-06T02:35:34;9.65;;;6.53;;
66143;SDS011;52947;50.842;6.084;2024-03-06T02:38:04;11.60;;;6.57;;
66143;SDS011;52947;50.842;6.084;2024-03-06T02:40:32;9.52;;;7.78;;
66143;SDS011;52947;50.842;6.084;2024-03-06T02:43:01;8.10;;;7.18;;
66143;SDS011;52947;50.842;6.084;2024-03-06T02:45:29;10.60;;;7.50;;
66143;SDS011;52947;50.842;6.084;2024-03-06T02:47:57;14.60;;;8.35;;
66143;SDS011;52947;50.842;6.084;2024-03-06T02:50:25;8.93;;;7.38;;
66143;SDS011;52947;50.842;6.084;2024-03-06T02:52:53;8.40;;;6.95;;
66143;SDS011;52947;50.842;6.084;2024-03-06T02:55:22;7.75;;;6.05;;
66143;SDS011;52947;50.842;6.084;2024-03-06T02:57:51;6.25;;;5.65;;
66143;SDS011;52947;50.842;6.084;2024-03-06T03:00:19;14.73;;;6.93;;
66143;SDS011;52947;50.842;6.084;2024-03-06T03:02:48;13.48;;;8.15;;
66143;SDS011;52947;50.842;6.084;2024-03-06T03:05:16;15.88;;;7.07;;
66143;SDS011;52947;50.842;6.084;2024-03-06T03:07:44;9.73;;;6.78;;
66143;SDS011;52947;50.842;6.084;2024-03-06T03:10:12;8.90;;;8.00;;
66143;SDS011;52947;50.842;6.084;2024-03-06T03:12:42;8.88;;;7.25;;
66143;SDS011;52947;50.842;6.084;2024-03-06T03:15:10;11.27;;;8.65;;
66143;SDS011;52947;50.842;6.084;2024-03-06T03:17:38;11.25;;;7.88;;
66143;SDS011;52947;50.842;6.084;2024-03-06T03:20:08;11.45;;;8.55;;
66143;SDS011;52947;50.842;6.084;2024-03-06T03:22:38;14.43;;;7.20;;
66143;SDS011;52947;50.842;6.084;2024-03-06T03:25:07;8.50;;;7.65;;
66143;SDS011;52947;50.842;6.084;2024-03-06T03:27:36;11.05;;;7.90;;
66143;SDS011;52947;50.842;6.084;2024-03-06T03:30:07;9.13;;;8.10;;
66143;SDS011;52947;50.842;6.084;2024-03-06T03:32:36;8.52;;;7.00;;
66143;SDS011;52947;50.842;6.084;2024-03-06T03:35:05;13.00;;;6.65;;
66143;SDS011;52947;50.842;6.084;2024-03-06T03:37:34;10.00;;;7.40;;
66143;SDS011;52947;50.842;6.084;2024-03-06T03:40:02;7.65;;;6.80;;
66143;SDS011;52947;50.842;6.084;2024-03-06T03:42:31;7.70;;;6.53;;
66143;SDS011;52947;50.842;6.084;2024-03-06T03:44:59;12.23;;;8.55;;
66143;SDS011;52947;50.842;6.084;2024-03-06T03:47:28;11.80;;;7.65;;
66143;SDS011;52947;50.842;6.084;2024-03-06T03:49:56;7.38;;;6.40;;
66143;SDS011;52947;50.842;6.084;2024-03-06T03:52:36;10.30;;;5.93;;
66143;SDS011;52947;50.842;6.084;2024-03-06T03:55:08;8.40;;;6.28;;
66143;SDS011;52947;50.842;6.084;2024-03-06T03:57:37;8.18;;;6.38;;
66143;SDS011;52947;50.842;6.084;2024-03-06T04:00:06;7.88;;;7.03;;
66143;SDS011;52947;50.842;6.084;2024-03-06T04:02:39;10.82;;;6.38;;
66143;SDS011;52947;50.842;6.084;2024-03-06T04:05:08;8.15;;;6.53;;
66143;SDS011;52947;50.842;6.084;2024-03-06T04:07:37;11.05;;;6.50;;
66143;SDS011;52947;50.842;6.084;2024-03-06T04:10:06;9.90;;;5.82;;
66143;SDS011;52947;50.842;6.084;2024-03-06T04:12:37;7.63;;;6.75;;
66143;SDS011;52947;50.842;6.084;2024-03-06T04:15:06;7.80;;;7.00;;
66143;SDS011;52947;50.842;6.084;2024-03-06T04:17:35;9.35;;;6.70;;
66143;SDS011;52947;50.842;6.084;2024-03-06T04:20:05;7.70;;;6.95;;
66143;SDS011;52947;50.842;6.084;2024-03-06T04:22:34;9.77;;;7.10;;
66143;SDS011;52947;50.842;6.084;2024-03-06T04:25:02;8.40;;;6.85;;
66143;SDS011;52947;50.842;6.084;2024-03-06T04:27:31;10.73;;;7.47;;
66143;SDS011;52947;50.842;6.084;2024-03-06T04:29:59;9.48;;;7.15;;
66143;SDS011;52947;50.842;6.084;2024-03-06T04:32:27;8.02;;;6.95;;
66143;SDS011;52947;50.842;6.084;2024-03-06T04:34:55;7.32;;;6.65;;
66143;SDS011;52947;50.842;6.084;2024-03-06T04:37:25;8.27;;;6.32;;
66143;SDS011;52947;50.842;6.084;2024-03-06T04:39:55;9.32;;;6.78;;
66143;SDS011;52947;50.842;6.084;2024-03-06T04:42:23;7.80;;;6.65;;
66143;SDS011;52947;50.842;6.084;2024-03-06T04:44:51;8.75;;;7.35;;
66143;SDS011;52947;50.842;6.084;2024-03-06T04:47:19;8.18;;;7.35;;
66143;SDS011;52947;50.842;6.084;2024-03-06T04:49:47;8.68;;;7.78;;
66143;SDS011;52947;50.842;6.084;2024-03-06T04:52:16;7.25;;;6.57;;
66143;SDS011;52947;50.842;6.084;2024-03-06T04:54:46;8.77;;;7.03;;
66143;SDS011;52947;50.842;6.084;2024-03-06T04:57:14;8.82;;;6.93;;
66143;SDS011;52947;50.842;6.084;2024-03-06T04:59:42;8.60;;;6.32;;
66143;SDS011;52947;50.842;6.084;2024-03-06T05:02:09;14.95;;;6.72;;
66143;SDS011;52947;50.842;6.084;2024-03-06T05:04:38;10.10;;;7.50;;
66143;SDS011;52947;50.842;6.084;2024-03-06T05:07:24;7.70;;;7.10;;
66143;SDS011;52947;50.842;6.084;2024-03-06T05:10:11;8.32;;;7.50;;
66143;SDS011;52947;50.842;6.084;2024-03-06T05:12:56;10.85;;;7.13;;
66143;SDS011;52947;50.842;6.084;2024-03-06T05:15:41;12.38;;;8.38;;
66143;SDS011;52947;50.842;6.084;2024-03-06T05:18:26;8.55;;;7.57;;
66143;SDS011;52947;50.842;6.084;2024-03-06T05:21:12;10.68;;;7.47;;
66143;SDS011;52947;50.842;6.084;2024-03-06T05:23:57;11.18;;;8.63;;
66143;SDS011;52947;50.842;6.084;2024-03-06T05:26:44;13.20;;;8.73;;
66143;SDS011;52947;50.842;6.084;2024-03-06T05:29:29;8.82;;;7.93;;
66143;SDS011;52947;50.842;6.084;2024-03-06T05:32:15;9.85;;;8.93;;
66143;SDS011;52947;50.842;6.084;2024-03-06T05:35:00;8.60;;;7.70;;
66143;SDS011;52947;50.842;6.084;2024-03-06T05:37:46;9.13;;;7.80;;
66143;SDS011;52947;50.842;6.084;2024-03-06T05:40:31;10.43;;;7.85;;
66143;SDS011;52947;50.842;6.084;2024-03-06T05:43:22;8.82;;;7.93;;
66143;SDS011;52947;50.842;6.084;2024-03-06T05:46:07;14.48;;;9.35;;
66143;SDS011;52947;50.842;6.084;2024-03-06T05:48:53;11.55;;;9.20;;
66143;SDS011;52947;50.842;6.084;2024-03-06T05:51:38;12.35;;;8.50;;
66143;SDS011;52947;50.842;6.084;2024-03-06T05:54:23;13.20;;;8.55;;
66143;SDS011;52947;50.842;6.084;2024-03-06T05:57:10;12.63;;;8.98;;
66143;SDS011;52947;50.842;6.084;2024-03-06T05:59:56;10.88;;;9.13;;
66143;SDS011;52947;50.842;6.084;2024-03-06T06:02:24;15.30;;;10.05;;
66143;SDS011;52947;50.842;6.084;2024-03-06T06:04:53;13.70;;;9.48;;
66143;SDS011;52947;50.842;6.084;2024-03-06T06:07:42;13.68;;;9.65;;
66143;SDS011;52947;50.842;6.084;2024-03-06T06:10:09;13.23;;;10.45;;
66143;SDS011;52947;50.842;6.084;2024-03-06T06:12:37;20.80;;;9.15;;
66143;SDS011;52947;50.842;6.084;2024-03-06T06:15:07;13.10;;;9.85;;
66143;SDS011;52947;50.842;6.084;2024-03-06T06:17:36;18.15;;;9.85;;
66143;SDS011;52947;50.842;6.084;2024-03-06T06:20:06;24.33;;;10.18;;
66143;SDS011;52947;50.842;6.084;2024-03-06T06:22:36;10.13;;;8.95;;
66143;SDS011;52947;50.842;6.084;2024-03-06T06:25:05;13.88;;;9.63;;
66143;SDS011;52947;50.842;6.084;2024-03-06T06:27:33;16.63;;;10.15;;
66143;SDS011;52947;50.842;6.084;2024-03-06T06:30:02;14.13;;;10.65;;
66143;SDS011;52947;50.842;6.084;2024-03-06T06:32:34;19.17;;;9.45;;
66143;SDS011;52947;50.842;6.084;2024-03-06T06:35:02;17.50;;;10.50;;
66143;SDS011;52947;50.842;6.084;2024-03-06T06:37:31;12.50;;;8.73;;
66143;SDS011;52947;50.842;6.084;2024-03-06T06:40:00;12.88;;;9.30;;
66143;SDS011;52947;50.842;6.084;2024-03-06T06:42:33;12.68;;;10.18;;
66143;SDS011;52947;50.842;6.084;2024-03-06T06:45:01;27.85;;;17.00;;
66143;SDS011;52947;50.842;6.084;2024-03-06T06:47:30;14.00;;;9.32;;
66143;SDS011;52947;50.842;6.084;2024-03-06T06:49:59;12.00;;;9.63;;
66143;SDS011;52947;50.842;6.084;2024-03-06T06:52:27;13.00;;;10.20;;
66143;SDS011;52947;50.842;6.084;2024-03-06T06:54:55;11.20;;;9.18;;
66143;SDS011;52947;50.842;6.084;2024-03-06T06:57:23;18.52;;;9.07;;
66143;SDS011;52947;50.842;6.084;2024-03-06T06:59:51;9.13;;;7.07;;
66143;SDS011;52947;50.842;6.084;2024-03-06T07:02:19;13.90;;;8.23;;
66143;SDS011;52947;50.842;6.084;2024-03-06T07:04:48;11.68;;;7.20;;
66143;SDS011;52947;50.842;6.084;2024-03-06T07:07:18;9.93;;;6.15;;
66143;SDS011;52947;50.842;6.084;2024-03-06T07:09:46;10.20;;;7.60;;
66143;SDS011;52947;50.842;6.084;2024-03-06T07:12:14;11.98;;;6.55;;
66143;SDS011;52947;50.842;6.084;2024-03-06T07:14:41;12.43;;;6.95;;
66143;SDS011;52947;50.842;6.084;2024-03-06T07:17:10;12.38;;;6.30;;
66143;SDS011;52947;50.842;6.084;2024-03-06T07:19:38;11.35;;;7.28;;
66143;SDS011;52947;50.842;6.084;2024-03-06T07:22:06;7.55;;;5.97;;
66143;SDS011;52947;50.842;6.084;2024-03-06T07:24:36;9.05;;;7.05;;
66143;SDS011;52947;50.842;6.084;2024-03-06T07:27:05;8.65;;;5.68;;
66143;SDS011;52947;50.842;6.084;2024-03-06T07:29:35;7.95;;;5.72;;
66143;SDS011;52947;50.842;6.084;2024-03-06T07:32:03;7.25;;;4.65;;
66143;SDS011;52947;50.842;6.084;2024-03-06T07:34:32;14.02;;;5.72;;
66143;SDS011;52947;50.842;6.084;2024-03-06T07:37:00;10.10;;;5.07;;
66143;SDS011;52947;50.842;6.084;2024-03-06T07:39:31;16.42;;;7.53;;
66143;SDS011;52947;50.842;6.084;2024-03-06T07:42:02;17.83;;;8.13;;
66143;SDS011;52947;50.842;6.084;2024-03-06T07:44:31;9.18;;;6.20;;
66143;SDS011;52947;50.842;6.084;2024-03-06T07:46:59;13.70;;;6.07;;
66143;SDS011;52947;50.842;6.084;2024-03-06T07:49:27;6.85;;;4.60;;
66143;SDS011;52947;50.842;6.084;2024-03-06T07:51:55;8.45;;;5.18;;
66143;SDS011;52947;50.842;6.084;2024-03-06T07:54:23;8.48;;;4.20;;
66143;SDS011;52947;50.842;6.084;2024-03-06T07:56:51;7.90;;;4.88;;
66143;SDS011;52947;50.842;6.084;2024-03-06T07:59:21;6.18;;;4.55;;
66143;SDS011;52947;50.842;6.084;2024-03-06T08:01:49;9.35;;;5.32;;
66143;SDS011;52947;50.842;6.084;2024-03-06T08:04:17;6.95;;;4.15;;
66143;SDS011;52947;50.842;6.084;2024-03-06T08:06:45;10.15;;;4.80;;
66143;SDS011;52947;50.842;6.084;2024-03-06T08:09:13;9.40;;;4.88;;
66143;SDS011;52947;50.842;6.084;2024-03-06T08:11:43;6.45;;;4.20;;
66143;SDS011;52947;50.842;6.084;2024-03-06T08:14:11;7.90;;;3.90;;
66143;SDS011;52947;50.842;6.084;2024-03-06T08:16:42;11.77;;;6.25;;
66143;SDS011;52947;50.842;6.084;2024-03-06T08:19:10;7.60;;;4.97;;
66143;SDS011;52947;50.842;6.084;2024-03-06T08:21:38;7.95;;;4.57;;
66143;SDS011;52947;50.842;6.084;2024-03-06T08:24:07;13.00;;;5.30;;
66143;SDS011;52947;50.842;6.084;2024-03-06T08:26:54;11.75;;;5.00;;
66143;SDS011;52947;50.842;6.084;2024-03-06T08:29:23;5.05;;;3.70;;
66143;SDS011;52947;50.842;6.084;2024-03-06T08:31:52;9.85;;;3.47;;
66143;SDS011;52947;50.842;6.084;2024-03-06T08:34:24;11.90;;;6.90;;
66143;SDS011;52947;50.842;6.084;2024-03-06T08:36:52;7.15;;;3.80;;
66143;SDS011;52947;50.842;6.084;2024-03-06T08:39:21;7.00;;;3.50;;
66143;SDS011;52947;50.842;6.084;2024-03-06T08:41:50;7.93;;;3.80;;
66143;SDS011;52947;50.842;6.084;2024-03-06T08:44:19;5.82;;;3.90;;
66143;SDS011;52947;50.842;6.084;2024-03-06T08:46:47;7.20;;;3.38;;
66143;SDS011;52947;50.842;6.084;2024-03-06T08:49:16;5.63;;;3.38;;
66143;SDS011;52947;50.842;6.084;2024-03-06T08:51:44;4.18;;;2.80;;
66143;SDS011;52947;50.842;6.084;2024-03-06T08:54:12;7.00;;;3.35;;
66143;SDS011;52947;50.842;6.084;2024-03-06T08:56:42;8.25;;;4.28;;
66143;SDS011;52947;50.842;6.084;2024-03-06T08:59:11;6.88;;;2.80;;
66143;SDS011;52947;50.842;6.084;2024-03-06T09:01:39;6.40;;;3.13;;
66143;SDS011;52947;50.842;6.084;2024-03-06T09:04:07;4.55;;;2.90;;
66143;SDS011;52947;50.842;6.084;2024-03-06T09:06:37;6.57;;;3.72;;
66143;SDS011;52947;50.842;6.084;2024-03-06T09:09:05;4.10;;;2.95;;
66143;SDS011;52947;50.842;6.084;2024-03-06T09:11:33;6.40;;;4.22;;
66143;SDS011;52947;50.842;6.084;2024-03-06T09:14:01;8.07;;;3.63;;
66143;SDS011;52947;50.842;6.084;2024-03-06T09:16:31;10.77;;;3.40;;
66143;SDS011;52947;50.842;6.084;2024-03-06T09:18:59;8.88;;;4.20;;
66143;SDS011;52947;50.842;6.084;2024-03-06T09:21:27;5.15;;;3.92;;
66143;SDS011;52947;50.842;6.084;2024-03-06T09:23:56;6.90;;;3.90;;
66143;SDS011;52947;50.842;6.084;2024-03-06T09:26:24;8.07;;;4.05;;
66143;SDS011;52947;50.842;6.084;2024-03-06T09:28:52;7.63;;;3.45;;
66143;SDS011;52947;50.842;6.084;2024-03-06T09:31:20;6.93;;;3.10;;
66143;SDS011;52947;50.842;6.084;2024-03-06T09:33:48;5.78;;;2.85;;
66143;SDS011;52947;50.842;6.084;2024-03-06T09:36:16;8.43;;;3.60;;
66143;SDS011;52947;50.842;6.084;2024-03-06T09:38:44;6.03;;;3.05;;
66143;SDS011;52947;50.842;6.084;2024-03-06T09:41:14;4.78;;;2.63;;
66143;SDS011;52947;50.842;6.084;2024-03-06T09:43:43;6.72;;;3.33;;
66143;SDS011;52947;50.842;6.084;2024-03-06T09:46:11;4.10;;;2.67;;
66143;SDS011;52947;50.842;6.084;2024-03-06T09:48:41;6.70;;;2.63;;
66143;SDS011;52947;50.842;6.084;2024-03-06T09:51:14;6.95;;;3.45;;
66143;SDS011;52947;50.842;6.084;2024-03-06T09:53:42;6.60;;;3.35;;
66143;SDS011;52947;50.842;6.084;2024-03-06T09:56:11;7.07;;;3.17;;
66143;SDS011;52947;50.842;6.084;2024-03-06T09:58:41;4.97;;;3.83;;
66143;SDS011;52947;50.842;6.084;2024-03-06T10:01:09;5.28;;;2.83;;
66143;SDS011;52947;50.842;6.084;2024-03-06T10:03:39;5.82;;;3.40;;
66143;SDS011;52947;50.842;6.084;2024-03-06T10:06:08;5.15;;;2.60;;
66143;SDS011;52947;50.842;6.084;2024-03-06T10:08:41;6.53;;;3.03;;
66143;SDS011;52947;50.842;6.084;2024-03-06T10:11:11;5.05;;;4.03;;
66143;SDS011;52947;50.842;6.084;2024-03-06T10:13:40;4.88;;;3.90;;
66143;SDS011;52947;50.842;6.084;2024-03-06T10:16:08;6.20;;;3.40;;
66143;SDS011;52947;50.842;6.084;2024-03-06T10:18:38;6.03;;;2.85;;
66143;SDS011;52947;50.842;6.084;2024-03-06T10:21:06;10.50;;;4.97;;
66143;SDS011;52947;50.842;6.084;2024-03-06T10:23:34;5.57;;;3.03;;
66143;SDS011;52947;50.842;6.084;2024-03-06T10:26:04;6.90;;;3.90;;
66143;SDS011;52947;50.842;6.084;2024-03-06T10:28:35;6.15;;;4.00;;
66143;SDS011;52947;50.842;6.084;2024-03-06T10:31:04;8.43;;;3.75;;
66143;SDS011;52947;50.842;6.084;2024-03-06T10:33:34;12.60;;;3.92;;
66143;SDS011;52947;50.842;6.084;2024-03-06T10:36:04;5.13;;;3.35;;
66143;SDS011;52947;50.842;6.084;2024-03-06T10:38:33;6.88;;;4.10;;
66143;SDS011;52947;50.842;6.084;2024-03-06T10:41:05;6.00;;;4.07;;
66143;SDS011;52947;50.842;6.084;2024-03-06T10:43:40;5.65;;;3.40;;
66143;SDS011;52947;50.842;6.084;2024-03-06T10:46:13;7.20;;;3.33;;
66143;SDS011;52947;50.842;6.084;2024-03-06T10:48:42;4.88;;;3.20;;
66143;SDS011;52947;50.842;6.084;2024-03-06T10:51:11;5.93;;;3.30;;
66143;SDS011;52947;50.842;6.084;2024-03-06T10:53:41;3.92;;;3.40;;
66143;SDS011;52947;50.842;6.084;2024-03-06T10:56:10;5.43;;;3.35;;
66143;SDS011;52947;50.842;6.084;2024-03-06T10:58:39;4.65;;;3.55;;
66143;SDS011;52947;50.842;6.084;2024-03-06T11:01:09;6.15;;;3.00;;
66143;SDS011;52947;50.842;6.084;2024-03-06T11:03:40;6.93;;;3.17;;
66143;SDS011;52947;50.842;6.084;2024-03-06T11:06:09;5.07;;;3.00;;
66143;SDS011;52947;50.842;6.084;2024-03-06T11:08:37;3.78;;;3.22;;
66143;SDS011;52947;50.842;6.084;2024-03-06T11:11:20;6.35;;;2.80;;
66143;SDS011;52947;50.842;6.084;2024-03-06T11:13:49;5.38;;;2.60;;
66143;SDS011;52947;50.842;6.084;2024-03-06T11:16:17;8.63;;;3.78;;
66143;SDS011;52947;50.842;6.084;2024-03-06T11:18:46;7.28;;;4.30;;
66143;SDS011;52947;50.842;6.084;2024-03-06T11:21:28;5.40;;;3.30;;
66143;SDS011;52947;50.842;6.084;2024-03-06T11:24:11;6.03;;;2.83;;
66143;SDS011;52947;50.842;6.084;2024-03-06T11:26:45;2.78;;;2.00;;
66143;SDS011;52947;50.842;6.084;2024-03-06T11:31:57;2.40;;;2.03;;
66143;SDS011;52947;50.842;6.084;2024-03-06T11:34:31;2.67;;;1.90;;
66143;SDS011;52947;50.842;6.084;2024-03-06T11:36:59;2.90;;;1.80;;
66143;SDS011;52947;50.842;6.084;2024-03-06T11:39:33;2.78;;;1.98;;
66143;SDS011;52947;50.842;6.084;2024-03-06T11:42:03;7.25;;;2.30;;
66143;SDS011;52947;50.842;6.084;2024-03-06T11:44:35;2.92;;;2.05;;
66143;SDS011;52947;50.842;6.084;2024-03-06T11:47:04;3.95;;;3.03;;
66143;SDS011;52947;50.842;6.084;2024-03-06T11:49:37;4.72;;;2.97;;
66143;SDS011;52947;50.842;6.084;2024-03-06T11:52:06;4.10;;;3.20;;
66143;SDS011;52947;50.842;6.084;2024-03-06T11:54:36;7.60;;;2.92;;
66143;SDS011;52947;50.842;6.084;2024-03-06T11:57:05;4.13;;;3.03;;
66143;SDS011;52947;50.842;6.084;2024-03-06T11:59:34;7.95;;;2.50;;
66143;SDS011;52947;50.842;6.084;2024-03-06T12:02:05;4.68;;;1.60;;
66143;SDS011;52947;50.842;6.084;2024-03-06T12:04:34;2.42;;;1.50;;
66143;SDS011;52947;50.842;6.084;2024-03-06T12:07:07;2.90;;;1.90;;
66143;SDS011;52947;50.842;6.084;2024-03-06T12:09:37;3.08;;;2.10;;
66143;SDS011;52947;50.842;6.084;2024-03-06T12:12:09;3.57;;;2.47;;
66143;SDS011;52947;50.842;6.084;2024-03-06T12:14:38;2.72;;;2.53;;
66143;SDS011;52947;50.842;6.084;2024-03-06T12:17:11;2.63;;;2.42;;
66143;SDS011;52947;50.842;6.084;2024-03-06T12:19:43;3.35;;;2.55;;
66143;SDS011;52947;50.842;6.084;2024-03-06T12:22:12;3.13;;;2.45;;
66143;SDS011;52947;50.842;6.084;2024-03-06T12:24:41;2.30;;;2.10;;
66143;SDS011;52947;50.842;6.084;2024-03-06T12:27:09;2.22;;;1.90;;
66143;SDS011;52947;50.842;6.084;2024-03-06T12:29:37;3.63;;;2.20;;
66143;SDS011;52947;50.842;6.084;2024-03-06T12:32:15;2.97;;;2.10;;
66143;SDS011;52947;50.842;6.084;2024-03-06T12:34:56;4.47;;;2.47;;
66143;SDS011;52947;50.842;6.084;2024-03-06T12:37:30;6.00;;;3.55;;
66143;SDS011;52947;50.842;6.084;2024-03-06T12:39:59;4.25;;;3.85;;
66143;SDS011;52947;50.842;6.084;2024-03-06T12:42:27;9.45;;;4.20;;
66143;SDS011;52947;50.842;6.084;2024-03-06T12:44:55;7.10;;;3.53;;
66143;SDS011;52947;50.842;6.084;2024-03-06T12:47:23;7.70;;;3.78;;
66143;SDS011;52947;50.842;6.084;2024-03-06T12:49:51;3.78;;;2.72;;
66143;SDS011;52947;50.842;6.084;2024-03-06T12:52:21;5.43;;;3.00;;
66143;SDS011;52947;50.842;6.084;2024-03-06T12:54:49;6.97;;;3.88;;
66143;SDS011;52947;50.842;6.084;2024-03-06T12:57:17;8.70;;;4.68;;
66143;SDS011;52947;50.842;6.084;2024-03-06T12:59:45;5.50;;;3.80;;
66143;SDS011;52947;50.842;6.084;2024-03-06T13:02:13;5.72;;;3.35;;
66143;SDS011;52947;50.842;6.084;2024-03-06T13:04:41;5.60;;;4.53;;
66143;SDS011;52947;50.842;6.084;2024-03-06T13:07:10;7.72;;;5.43;;
66143;SDS011;52947;50.842;6.084;2024-03-06T13:09:40;12.52;;;4.30;;
66143;SDS011;52947;50.842;6.084;2024-03-06T13:12:08;8.50;;;4.05;;
66143;SDS011;52947;50.842;6.084;2024-03-06T13:14:36;6.85;;;4.25;;
66143;SDS011;52947;50.842;6.084;2024-03-06T13:17:05;5.15;;;4.00;;
66143;SDS011;52947;50.842;6.084;2024-03-06T13:19:34;6.07;;;4.38;;
66143;SDS011;52947;50.842;6.084;2024-03-06T13:22:02;5.55;;;3.50;;
66143;SDS011;52947;50.842;6.084;2024-03-06T13:24:33;4.50;;;3.58;;
66143;SDS011;52947;50.842;6.084;2024-03-06T13:27:05;5.00;;;4.50;;
66143;SDS011;52947;50.842;6.084;2024-03-06T13:29:33;8.18;;;5.25;;
66143;SDS011;52947;50.842;6.084;2024-03-06T13:32:01;5.82;;;4.30;;
66143;SDS011;52947;50.842;6.084;2024-03-06T13:34:29;5.72;;;3.75;;
66143;SDS011;52947;50.842;6.084;2024-03-06T13:36:58;7.15;;;3.95;;
66143;SDS011;52947;50.842;6.084;2024-03-06T13:39:26;7.28;;;4.75;;
66143;SDS011;52947;50.842;6.084;2024-03-06T13:41:54;13.25;;;5.22;;
66143;SDS011;52947;50.842;6.084;2024-03-06T13:44:23;10.95;;;5.55;;
66143;SDS011;52947;50.842;6.084;2024-03-06T13:46:51;5.40;;;4.30;;
66143;SDS011;52947;50.842;6.084;2024-03-06T13:49:33;8.75;;;5.10;;
66143;SDS011;52947;50.842;6.084;2024-03-06T13:52:03;6.55;;;4.03;;
66143;SDS011;52947;50.842;6.084;2024-03-06T13:54:33;9.43;;;5.15;;
66143;SDS011;52947;50.842;6.084;2024-03-06T13:57:02;7.05;;;4.68;;
66143;SDS011;52947;50.842;6.084;2024-03-06T13:59:31;7.05;;;5.43;;
66143;SDS011;52947;50.842;6.084;2024-03-06T14:02:00;7.63;;;5.50;;
66143;SDS011;52947;50.842;6.084;2024-03-06T14:04:29;8.82;;;5.13;;
66143;SDS011;52947;50.842;6.084;2024-03-06T14:06:57;8.02;;;6.35;;
66143;SDS011;52947;50.842;6.084;2024-03-06T14:09:26;9.02;;;5.72;;
66143;SDS011;52947;50.842;6.084;2024-03-06T14:11:55;6.97;;;5.13;;
66143;SDS011;52947;50.842;6.084;2024-03-06T14:14:23;15.02;;;6.25;;
66143;SDS011;52947;50.842;6.084;2024-03-06T14:16:53;7.22;;;5.88;;
66143;SDS011;52947;50.842;6.084;2024-03-06T14:19:22;11.90;;;6.68;;
66143;SDS011;52947;50.842;6.084;2024-03-06T14:21:50;7.72;;;6.00;;
66143;SDS011;52947;50.842;6.084;2024-03-06T14:24:18;7.85;;;5.72;;
66143;SDS011;52947;50.842;6.084;2024-03-06T14:26:47;9.18;;;5.60;;
66143;SDS011;52947;50.842;6.084;2024-03-06T14:29:16;9.00;;;5.55;;
66143;SDS011;52947;50.842;6.084;2024-03-06T14:31:44;12.23;;;5.90;;
66143;SDS011;52947;50.842;6.084;2024-03-06T14:34:13;9.52;;;5.93;;
66143;SDS011;52947;50.842;6.084;2024-03-06T14:36:41;7.20;;;5.50;;
66143;SDS011;52947;50.842;6.084;2024-03-06T14:39:09;14.70;;;5.50;;
66143;SDS011;52947;50.842;6.084;2024-03-06T14:41:38;8.40;;;5.25;;
66143;SDS011;52947;50.842;6.084;2024-03-06T14:44:09;7.03;;;5.38;;
66143;SDS011;52947;50.842;6.084;2024-03-06T14:46:36;7.30;;;5.55;;
66143;SDS011;52947;50.842;6.084;2024-03-06T14:49:04;10.20;;;6.72;;
66143;SDS011;52947;50.842;6.084;2024-03-06T14:51:34;8.05;;;5.75;;
66143;SDS011;52947;50.842;6.084;2024-03-06T14:54:02;8.35;;;4.90;;
66143;SDS011;52947;50.842;6.084;2024-03-06T14:56:31;9.07;;;5.70;;
66143;SDS011;52947;50.842;6.084;2024-03-06T14:58:59;7.65;;;5.32;;
66143;SDS011;52947;50.842;6.084;2024-03-06T15:01:27;8.77;;;5.63;;
66143;SDS011;52947;50.842;6.084;2024-03-06T15:03:56;8.43;;;5.82;;